Everettville, West Virginia
Current Conditions -  °F | °C
As of 9:53 AM on Friday 28 Nov 2014 (Local Time) from KMGW Reporting Station
Light Snow Light Snow  
Wind Chill: 21°   Ceiling: 1000
Heat Index: 26°   Visibility: 1mi
Dew Point: 21°   Wind: 5mph
Humidity: 81%   Direction: NA
Pressure: 30.33"   Gusts: NA
Location:  39.56°N, 80.06°W
Report Text: KMGW 281453Z VRB04KT 1SM -SN BKN010 BKN017 OVC022 M03/M06 A3033 RMK AO2 SLP284 P0001 60002 T10331061 51007
Loading
Personal Weather Stations






























Interactive Weather Map New forecast layout! Learn more

10-Day Weather Forecast

Advertisements
Track Severe Weather on mobile